Terminal Aerodrome Forecast
Issued by NWS

Home | Current Version | Previous Version | Text Only | Print | Product List | Glossary On
Versions: 1 2 3 4 5 6 7 8 9 10 11 12
000
FTUS46 KPDT 300500
TAFALW
TAF
KALW 300529Z 3006/0106 20015KT P6SM VCSH BKN035 OVC050
     FM300800 19013KT P6SM VCSH SCT035 BKN050
     FM301600 22014G22KT P6SM BKN045
     FM302100 24016G22KT P6SM FEW045 BKN070
     FM010300 19010KT P6SM SCT070=

USA.gov is the U.S. government's official web portal to all federal, state and local government web resources and services.